Time;durP1;ratioP1;P1;durP2;ratioP2;P2;SDS_P1;SDS_P2;PMS_P1;PMS_P2;Temp;Humidity;BMP_temperature;BMP_pressure;BME280_temperature;BME280_humidity;BME280_pressure;Samples;Min_cycle;Max_cycle;Signal;HPM_P1;HPM_P2
2023/09/12 00:00:08;;;;;;;;;8.33;6.33;;;;;;;;5069506;27;45864;-84
2023/09/12 00:02:34;;;;;;;;;4.67;4.67;;;;;;;;5070304;27;46403;-84
2023/09/12 00:04:59;;;;;;;;;5.00;4.00;;;;;;;;5097465;27;45705;-80
2023/09/12 00:07:24;;;;;;;;;9.67;8.00;;;;;;;;5076727;27;45455;-82
2023/09/12 00:09:49;;;;;;;;;7.67;7.67;;;;;;;;5096978;27;45778;-81
2023/09/12 00:12:16;;;;;;;;;8.00;7.00;;;;;;;;5085579;27;45501;-82
2023/09/12 00:14:41;;;;;;;;;10.67;8.00;;;;;;;;5100508;27;46303;-80
2023/09/12 00:17:06;;;;;;;;;8.00;8.00;;;;;;;;5089497;27;45602;-81
2023/09/12 00:19:31;;;;;;;;;14.33;12.33;;;;;;;;5092819;27;45530;-81
2023/09/12 00:21:57;;;;;;;;;8.00;8.00;;;;;;;;5093268;27;45429;-82
2023/09/12 00:24:22;;;;;;;;;11.33;9.33;;;;;;;;5100530;27;46749;-84
2023/09/12 00:26:47;;;;;;;;;22.33;16.33;;;;;;;;5090515;27;45782;-82
2023/09/12 00:29:12;;;;;;;;;9.33;8.33;;;;;;;;5093316;27;45083;-82
2023/09/12 00:31:37;;;;;;;;;13.33;8.33;;;;;;;;5102736;27;45424;-81
2023/09/12 00:34:03;;;;;;;;;15.67;10.67;;;;;;;;5095865;27;45441;-82
2023/09/12 00:36:28;;;;;;;;;18.67;15.00;;;;;;;;5105876;27;44836;-81
2023/09/12 00:38:53;;;;;;;;;16.33;15.67;;;;;;;;5103281;27;45400;-80
2023/09/12 00:41:18;;;;;;;;;14.33;12.33;;;;;;;;5104445;27;45431;-83
2023/09/12 00:43:44;;;;;;;;;26.33;19.00;;;;;;;;5105537;27;45714;-80
2023/09/12 00:46:09;;;;;;;;;22.33;20.00;;;;;;;;5096391;27;45718;-82
2023/09/12 00:48:35;;;;;;;;;18.00;13.00;;;;;;;;5092552;27;45523;-82
2023/09/12 00:51:00;;;;;;;;;19.67;15.67;;;;;;;;5093177;27;45404;-80
2023/09/12 00:53:26;;;;;;;;;13.33;11.67;;;;;;;;5099694;27;46524;-80
2023/09/12 00:55:57;;;;;;;;;37.00;29.00;;;;;;;;5080646;27;45942;-81
2023/09/12 00:58:23;;;;;;;;;20.00;15.67;;;;;;;;5085361;27;45518;-82
2023/09/12 01:00:49;;;;;;;;;12.67;12.67;;;;;;;;5098831;27;45742;-81
2023/09/12 01:03:14;;;;;;;;;26.00;18.00;;;;;;;;5098887;27;46898;-81
2023/09/12 01:05:41;;;;;;;;;15.00;15.00;;;;;;;;5097495;27;45873;-80
2023/09/12 01:08:06;;;;;;;;;17.33;15.33;;;;;;;;5096142;27;45318;-81
2023/09/12 01:10:31;;;;;;;;;18.67;14.33;;;;;;;;5096620;27;45485;-80
2023/09/12 01:12:57;;;;;;;;;15.67;13.00;;;;;;;;5097583;27;46307;-80
2023/09/12 01:15:22;;;;;;;;;18.67;15.67;;;;;;;;5077735;27;45937;-81
2023/09/12 01:17:47;;;;;;;;;24.67;19.33;;;;;;;;5098336;27;45529;-82
2023/09/12 01:20:23;;;;;;;;;33.00;30.00;;;;;;;;5097240;27;45423;-82
2023/09/12 01:23:00;;;;;;;;;12.67;11.33;;;;;;;;5077751;27;46605;-82
2023/09/12 01:25:45;;;;;;;;;13.67;10.67;;;;;;;;5096156;27;45836;-83
2023/09/12 01:28:11;;;;;;;;;13.67;13.67;;;;;;;;5096844;27;45816;-83
2023/09/12 01:30:38;;;;;;;;;14.33;10.33;;;;;;;;5096078;27;45703;-82
2023/09/12 01:33:04;;;;;;;;;12.67;11.00;;;;;;;;5063816;27;47056;-82
2023/09/12 01:35:29;;;;;;;;;11.67;10.67;;;;;;;;5097979;27;45737;-79
2023/09/12 01:37:55;;;;;;;;;16.67;11.67;;;;;;;;5074733;27;45694;-82
2023/09/12 01:40:27;;;;;;;;;18.00;12.67;;;;;;;;5092641;27;45690;-82
2023/09/12 01:42:53;;;;;;;;;12.00;12.00;;;;;;;;5092259;27;45532;-81
2023/09/12 01:45:18;;;;;;;;;10.00;9.33;;;;;;;;5091980;27;45754;-82
2023/09/12 01:47:45;;;;;;;;;16.33;14.67;;;;;;;;5076386;27;45559;-81
2023/09/12 01:50:12;;;;;;;;;17.00;12.67;;;;;;;;5077150;27;45989;-80
2023/09/12 01:52:38;;;;;;;;;11.00;10.00;;;;;;;;5077323;27;46713;-80
2023/09/12 01:55:04;;;;;;;;;11.33;11.33;;;;;;;;5096123;27;45396;-82
2023/09/12 01:57:30;;;;;;;;;14.00;12.00;;;;;;;;5078230;27;45432;-82
2023/09/12 01:59:55;;;;;;;;;16.67;14.33;;;;;;;;5096427;27;45844;-81
2023/09/12 02:02:21;;;;;;;;;15.00;13.00;;;;;;;;5088591;27;46143;-81
2023/09/12 02:05:05;;;;;;;;;14.67;14.67;;;;;;;;5081414;27;45763;-81
2023/09/12 02:07:33;;;;;;;;;14.67;13.00;;;;;;;;5077358;27;45817;-81
2023/09/12 02:09:58;;;;;;;;;10.67;9.33;;;;;;;;5095600;27;45589;-82
2023/09/12 02:12:23;;;;;;;;;16.00;14.00;;;;;;;;5082876;27;46302;-81
2023/09/12 02:14:49;;;;;;;;;13.67;11.33;;;;;;;;5075924;27;45669;-81
2023/09/12 02:17:14;;;;;;;;;16.00;13.00;;;;;;;;5094968;27;45559;-81
2023/09/12 02:19:40;;;;;;;;;13.33;12.67;;;;;;;;5072157;28;47562;-81
2023/09/12 02:22:05;;;;;;;;;14.67;13.00;;;;;;;;5087240;27;45376;-80
2023/09/12 02:24:30;;;;;;;;;12.00;11.67;;;;;;;;5076939;27;45388;-81
2023/09/12 02:26:55;;;;;;;;;14.00;12.00;;;;;;;;5078667;27;45377;-82
2023/09/12 02:29:21;;;;;;;;;18.33;15.67;;;;;;;;5096482;27;45724;-82
2023/09/12 02:31:46;;;;;;;;;13.33;10.67;;;;;;;;5084394;27;45737;-81
2023/09/12 02:34:11;;;;;;;;;15.00;11.33;;;;;;;;5094629;27;45534;-81
2023/09/12 02:36:36;;;;;;;;;14.67;13.00;;;;;;;;5095021;27;45522;-80
2023/09/12 02:39:02;;;;;;;;;17.33;15.00;;;;;;;;5096724;27;45451;-81
2023/09/12 02:41:27;;;;;;;;;19.33;16.00;;;;;;;;5096864;27;46952;-83
2023/09/12 02:43:53;;;;;;;;;17.33;15.00;;;;;;;;5096739;27;45564;-80
2023/09/12 02:46:18;;;;;;;;;12.67;11.33;;;;;;;;5095655;27;45439;-81
2023/09/12 02:48:43;;;;;;;;;17.00;12.67;;;;;;;;5076983;27;46098;-82
2023/09/12 02:51:09;;;;;;;;;16.00;12.33;;;;;;;;5095580;27;46150;-81
2023/09/12 02:53:34;;;;;;;;;12.33;12.33;;;;;;;;5095672;27;45730;-82
2023/09/12 02:55:59;;;;;;;;;19.33;18.33;;;;;;;;5095562;27;45792;-79
2023/09/12 02:58:24;;;;;;;;;18.67;14.67;;;;;;;;5094995;27;45835;-80
2023/09/12 03:00:54;;;;;;;;;13.67;12.67;;;;;;;;5076068;27;48198;-81
2023/09/12 03:03:19;;;;;;;;;10.33;10.33;;;;;;;;5095173;27;45381;-79
2023/09/12 03:05:44;;;;;;;;;16.67;12.67;;;;;;;;5095272;27;45435;-79
2023/09/12 03:08:09;;;;;;;;;13.67;12.67;;;;;;;;5097424;27;45417;-80
2023/09/12 03:10:35;;;;;;;;;12.00;11.33;;;;;;;;5075732;27;48388;-80
2023/09/12 03:13:00;;;;;;;;;13.33;13.33;;;;;;;;5069491;27;45389;-81
2023/09/12 03:15:25;;;;;;;;;14.00;13.00;;;;;;;;5097077;27;45352;-80
2023/09/12 03:17:50;;;;;;;;;17.00;14.33;;;;;;;;5097234;27;45774;-81
2023/09/12 03:20:16;;;;;;;;;13.67;12.00;;;;;;;;5095484;27;45641;-82
2023/09/12 03:22:41;;;;;;;;;15.67;11.33;;;;;;;;5095279;27;45724;-80
2023/09/12 03:25:06;;;;;;;;;13.67;10.00;;;;;;;;5065277;27;45877;-81
2023/09/12 03:27:32;;;;;;;;;16.33;14.67;;;;;;;;5094034;27;45504;-80
2023/09/12 03:29:57;;;;;;;;;13.33;13.33;;;;;;;;5075820;27;47306;-83
2023/09/12 03:32:23;;;;;;;;;13.33;11.00;;;;;;;;5086537;27;45544;-82
2023/09/12 03:34:48;;;;;;;;;16.67;15.00;;;;;;;;5076329;27;45554;-82
2023/09/12 03:37:13;;;;;;;;;16.00;12.00;;;;;;;;5094236;27;45823;-81
2023/09/12 03:39:38;;;;;;;;;10.67;10.00;;;;;;;;5075831;27;46234;-83
2023/09/12 03:42:04;;;;;;;;;13.33;12.33;;;;;;;;5086469;27;45746;-83
2023/09/12 03:44:29;;;;;;;;;12.00;11.00;;;;;;;;5089490;27;45450;-82
2023/09/12 03:46:54;;;;;;;;;15.33;13.00;;;;;;;;5095072;27;45411;-81
2023/09/12 03:49:20;;;;;;;;;17.33;14.33;;;;;;;;5097614;27;45644;-81
2023/09/12 03:51:45;;;;;;;;;12.00;11.00;;;;;;;;5097965;27;45344;-79
2023/09/12 03:54:10;;;;;;;;;12.33;12.33;;;;;;;;5098368;27;45575;-80
2023/09/12 03:56:35;;;;;;;;;16.67;14.00;;;;;;;;5098376;27;45568;-82
2023/09/12 03:59:00;;;;;;;;;17.00;15.67;;;;;;;;5097850;27;46748;-81
2023/09/12 04:01:26;;;;;;;;;20.33;15.00;;;;;;;;5079198;27;45867;-81
2023/09/12 04:03:51;;;;;;;;;17.33;15.33;;;;;;;;5098082;27;45428;-80
2023/09/12 04:06:17;;;;;;;;;15.33;14.33;;;;;;;;5098054;27;45622;-80
2023/09/12 04:08:42;;;;;;;;;13.00;13.00;;;;;;;;5098216;27;45514;-82
2023/09/12 04:11:07;;;;;;;;;16.00;15.00;;;;;;;;5072224;28;45387;-83
2023/09/12 04:13:32;;;;;;;;;14.67;11.00;;;;;;;;5092592;27;45390;-80
2023/09/12 04:15:58;;;;;;;;;11.67;11.67;;;;;;;;5097991;27;45397;-81
2023/09/12 04:18:23;;;;;;;;;14.33;12.67;;;;;;;;5078776;27;45650;-81
2023/09/12 04:20:48;;;;;;;;;12.33;11.67;;;;;;;;5078258;27;45492;-80
2023/09/12 04:23:13;;;;;;;;;17.67;14.00;;;;;;;;5097377;27;45377;-81
2023/09/12 04:25:41;;;;;;;;;17.00;15.00;;;;;;;;5078783;27;46539;-81
2023/09/12 04:28:07;;;;;;;;;14.33;14.00;;;;;;;;5077622;27;47404;-80
2023/09/12 04:30:32;;;;;;;;;17.00;13.67;;;;;;;;5096240;27;45359;-82
2023/09/12 04:32:58;;;;;;;;;18.67;15.33;;;;;;;;5092543;27;45684;-80
2023/09/12 04:35:25;;;;;;;;;17.00;13.67;;;;;;;;5076677;27;45769;-80
2023/09/12 04:37:50;;;;;;;;;17.00;15.67;;;;;;;;5076666;27;47685;-81
2023/09/12 04:40:15;;;;;;;;;41.33;36.33;;;;;;;;5096214;27;45535;-82
2023/09/12 04:42:41;;;;;;;;;18.67;16.00;;;;;;;;5095366;27;45769;-82
2023/09/12 04:45:06;;;;;;;;;20.00;17.50;;;;;;;;5090539;27;45891;-82
2023/09/12 04:47:32;;;;;;;;;16.00;14.67;;;;;;;;5087390;27;45467;-81
2023/09/12 04:49:57;;;;;;;;;15.00;15.00;;;;;;;;5097099;27;45573;-82
2023/09/12 04:52:22;;;;;;;;;19.00;14.00;;;;;;;;5076691;27;45369;-82
2023/09/12 04:54:47;;;;;;;;;18.33;14.33;;;;;;;;5095405;27;45473;-82
2023/09/12 04:57:13;;;;;;;;;20.00;18.67;;;;;;;;5096008;27;45426;-80
2023/09/12 04:59:38;;;;;;;;;18.00;15.67;;;;;;;;5091537;27;45431;-80
2023/09/12 05:02:03;;;;;;;;;18.33;15.00;;;;;;;;5069176;27;46162;-79
2023/09/12 05:04:29;;;;;;;;;18.00;15.00;;;;;;;;5073120;27;46002;-81
2023/09/12 05:07:00;;;;;;;;;14.00;13.00;;;;;;;;5095917;27;46236;-83
2023/09/12 05:09:25;;;;;;;;;12.00;11.33;;;;;;;;5079905;27;45562;-83
2023/09/12 05:11:50;;;;;;;;;18.33;17.33;;;;;;;;5057866;27;45520;-84
2023/09/12 05:14:15;;;;;;;;;17.67;16.00;;;;;;;;5077450;27;45712;-82
2023/09/12 05:16:41;;;;;;;;;19.67;16.67;;;;;;;;5075316;27;47341;-81
2023/09/12 05:19:06;;;;;;;;;20.33;16.00;;;;;;;;5073261;27;45922;-83
2023/09/12 05:21:31;;;;;;;;;17.00;17.00;;;;;;;;5088335;27;45857;-82
2023/09/12 05:23:56;;;;;;;;;18.33;16.67;;;;;;;;5096166;27;45566;-82
2023/09/12 05:26:22;;;;;;;;;14.00;12.67;;;;;;;;5074136;27;46831;-84
2023/09/12 05:28:47;;;;;;;;;14.67;11.33;;;;;;;;5093892;27;45943;-83
2023/09/12 05:31:12;;;;;;;;;11.67;11.33;;;;;;;;5082377;27;45640;-82
2023/09/12 05:33:38;;;;;;;;;17.00;14.00;;;;;;;;5079823;27;45927;-81
2023/09/12 05:36:03;;;;;;;;;19.00;12.33;;;;;;;;5079819;27;47707;-83
2023/09/12 05:38:28;;;;;;;;;18.33;14.33;;;;;;;;5082578;27;46174;-80
2023/09/12 05:40:54;;;;;;;;;15.33;13.00;;;;;;;;5093926;27;45729;-82
2023/09/12 05:43:19;;;;;;;;;15.67;14.00;;;;;;;;5071774;27;45829;-82
2023/09/12 05:45:45;;;;;;;;;14.00;12.00;;;;;;;;5081243;27;45427;-81
2023/09/12 05:48:10;;;;;;;;;18.00;13.33;;;;;;;;5093317;27;45505;-81
2023/09/12 05:50:36;;;;;;;;;17.00;15.33;;;;;;;;5068484;27;45714;-82
2023/09/12 05:53:02;;;;;;;;;24.00;19.67;;;;;;;;5072677;27;46085;-80
2023/09/12 05:55:27;;;;;;;;;15.00;13.67;;;;;;;;5093390;27;45770;-80
2023/09/12 05:57:53;;;;;;;;;16.67;13.00;;;;;;;;5092478;27;45615;-81
2023/09/12 06:00:18;;;;;;;;;13.67;12.00;;;;;;;;5086504;27;45460;-80
2023/09/12 06:02:44;;;;;;;;;12.33;11.33;;;;;;;;5077004;27;45876;-80
2023/09/12 06:05:10;;;;;;;;;9.33;9.33;;;;;;;;5091044;27;45869;-82
2023/09/12 06:07:36;;;;;;;;;13.33;13.00;;;;;;;;5065760;27;45924;-80
2023/09/12 06:10:01;;;;;;;;;13.00;12.00;;;;;;;;5090990;27;46020;-80
2023/09/12 06:12:27;;;;;;;;;20.00;17.33;;;;;;;;5080966;27;45823;-79
2023/09/12 06:14:55;;;;;;;;;14.67;14.33;;;;;;;;5091734;27;45779;-79
2023/09/12 06:17:21;;;;;;;;;11.67;11.67;;;;;;;;5073517;27;45888;-82
2023/09/12 06:19:47;;;;;;;;;16.67;16.67;;;;;;;;5074915;27;45683;-80
2023/09/12 06:22:12;;;;;;;;;15.33;15.33;;;;;;;;5075047;27;45958;-80
2023/09/12 06:24:39;;;;;;;;;14.33;12.33;;;;;;;;5095706;27;45546;-80
2023/09/12 06:27:04;;;;;;;;;17.00;15.00;;;;;;;;5079907;27;45900;-81
2023/09/12 06:29:29;;;;;;;;;16.50;15.50;;;;;;;;5089230;27;45481;-81
2023/09/12 06:31:56;;;;;;;;;13.00;12.67;;;;;;;;5090407;27;45765;-81
2023/09/12 06:34:21;;;;;;;;;21.00;14.33;;;;;;;;5095980;27;45797;-79
2023/09/12 06:36:46;;;;;;;;;19.00;15.00;;;;;;;;5072568;27;45814;-80
2023/09/12 06:39:12;;;;;;;;;16.00;16.00;;;;;;;;5092528;27;45566;-81
2023/09/12 06:41:37;;;;;;;;;16.67;13.33;;;;;;;;5091595;27;45638;-81
2023/09/12 06:44:05;;;;;;;;;20.00;15.00;;;;;;;;5068515;27;46683;-80
2023/09/12 06:46:39;;;;;;;;;10.67;9.67;;;;;;;;5090586;27;45690;-87
2023/09/12 06:49:04;;;;;;;;;20.67;13.67;;;;;;;;5088016;27;45482;-80
2023/09/12 06:51:30;;;;;;;;;16.33;13.67;;;;;;;;5076942;27;45671;-80
2023/09/12 06:53:55;;;;;;;;;12.00;10.67;;;;;;;;5061105;27;47453;-81
2023/09/12 06:56:21;;;;;;;;;15.33;13.33;;;;;;;;5092288;27;45445;-81
2023/09/12 06:58:47;;;;;;;;;13.00;13.00;;;;;;;;5074553;27;45921;-81
2023/09/12 07:01:12;;;;;;;;;11.00;11.00;;;;;;;;5088654;27;45887;-82
2023/09/12 07:03:37;;;;;;;;;10.00;10.00;;;;;;;;5084017;27;46182;-82
2023/09/12 07:06:03;;;;;;;;;17.00;13.67;;;;;;;;5079776;27;45785;-81
2023/09/12 07:08:32;;;;;;;;;16.25;13.25;;;;;;;;5068563;27;45896;-84
2023/09/12 07:11:05;;;;;;;;;18.67;14.33;;;;;;;;5088439;27;45457;-84
2023/09/12 07:13:33;;;;;;;;;16.33;14.33;;;;;;;;5077258;27;47534;-81
2023/09/12 07:15:58;;;;;;;;;15.33;12.00;;;;;;;;5088955;27;45945;-81
2023/09/12 07:18:25;;;;;;;;;12.00;8.33;;;;;;;;5079353;27;45417;-80
2023/09/12 07:21:10;;;;;;;;;16.33;15.00;;;;;;;;5092040;27;45601;-80
2023/09/12 07:23:35;;;;;;;;;15.67;15.67;;;;;;;;5060477;27;45609;-81
2023/09/12 07:26:02;;;;;;;;;17.33;14.00;;;;;;;;5086732;27;45732;-82
2023/09/12 07:28:27;;;;;;;;;14.00;13.00;;;;;;;;5074007;27;45447;-81
2023/09/12 07:30:55;;;;;;;;;16.00;15.00;;;;;;;;5091941;27;45760;-81
2023/09/12 07:33:21;;;;;;;;;11.67;11.67;;;;;;;;5073076;27;47232;-81
2023/09/12 07:35:47;;;;;;;;;16.33;13.33;;;;;;;;5076853;27;45732;-79
2023/09/12 07:38:13;;;;;;;;;12.67;11.67;;;;;;;;5070607;28;46440;-79
2023/09/12 07:40:38;;;;;;;;;12.67;12.33;;;;;;;;5083354;27;45681;-79
2023/09/12 07:43:04;;;;;;;;;13.00;12.67;;;;;;;;5088967;27;45930;-79
2023/09/12 07:45:31;;;;;;;;;12.00;11.33;;;;;;;;5092622;27;45942;-80
2023/09/12 07:47:56;;;;;;;;;13.67;13.00;;;;;;;;5092816;27;45240;-79
2023/09/12 07:50:21;;;;;;;;;14.67;12.00;;;;;;;;5073386;27;46432;-80
2023/09/12 07:52:47;;;;;;;;;16.00;14.67;;;;;;;;5092081;27;45793;-80
2023/09/12 07:55:12;;;;;;;;;16.67;12.00;;;;;;;;5074653;27;45755;-80
2023/09/12 07:57:38;;;;;;;;;15.33;13.00;;;;;;;;5070781;28;45740;-79
2023/09/12 08:00:07;;;;;;;;;18.00;14.00;;;;;;;;5083739;27;45446;-80
2023/09/12 08:02:32;;;;;;;;;14.00;13.00;;;;;;;;5076225;27;48053;-80
2023/09/12 08:04:58;;;;;;;;;15.67;13.67;;;;;;;;5079647;27;45677;-80
2023/09/12 08:07:23;;;;;;;;;18.00;14.33;;;;;;;;5088431;27;45645;-79
2023/09/12 08:09:51;;;;;;;;;11.00;11.00;;;;;;;;5072035;27;45805;-79
2023/09/12 08:12:17;;;;;;;;;11.00;9.33;;;;;;;;5091492;27;47189;-81
2023/09/12 08:14:42;;;;;;;;;11.00;10.00;;;;;;;;5087088;27;46059;-80
2023/09/12 08:17:08;;;;;;;;;9.25;8.00;;;;;;;;5086978;27;45576;-79
2023/09/12 08:19:34;;;;;;;;;11.33;9.00;;;;;;;;5082880;27;45533;-81
2023/09/12 08:21:59;;;;;;;;;13.00;10.33;;;;;;;;5090482;27;45827;-81
2023/09/12 08:24:25;;;;;;;;;10.67;9.33;;;;;;;;5069297;27;45337;-81
2023/09/12 08:26:50;;;;;;;;;8.25;7.25;;;;;;;;5081708;27;45750;-79
2023/09/12 08:29:15;;;;;;;;;12.00;11.00;;;;;;;;5062893;27;46585;-80
2023/09/12 08:31:40;;;;;;;;;14.67;11.67;;;;;;;;5092081;27;46171;-79
2023/09/12 08:34:06;;;;;;;;;14.67;13.33;;;;;;;;5088892;27;45496;-82
2023/09/12 08:36:36;;;;;;;;;17.50;12.00;;;;;;;;5072587;27;45844;-79
2023/09/12 08:39:03;;;;;;;;;8.75;7.75;;;;;;;;5094926;27;45715;-79
2023/09/12 08:41:34;;;;;;;;;11.00;9.25;;;;;;;;5077253;27;47287;-80
2023/09/12 08:44:00;;;;;;;;;11.33;10.00;;;;;;;;5087195;27;45751;-78
2023/09/12 08:46:26;;;;;;;;;9.67;9.33;;;;;;;;5096371;27;45518;-79
2023/09/12 08:48:52;;;;;;;;;11.67;9.00;;;;;;;;5075954;27;45741;-79
2023/09/12 08:51:17;;;;;;;;;9.75;8.75;;;;;;;;5094699;27;46204;-79
2023/09/12 08:53:44;;;;;;;;;11.00;9.50;;;;;;;;5092806;27;45780;-78
2023/09/12 08:56:10;;;;;;;;;10.50;10.00;;;;;;;;5068976;27;45311;-79
2023/09/12 08:58:36;;;;;;;;;14.25;10.75;;;;;;;;5099096;27;45409;-78
2023/09/12 09:01:03;;;;;;;;;9.50;9.50;;;;;;;;5092072;27;45968;-79
2023/09/12 09:03:28;;;;;;;;;11.25;10.75;;;;;;;;5078598;27;45496;-79
2023/09/12 09:05:54;;;;;;;;;10.50;9.75;;;;;;;;5095408;27;45811;-80
2023/09/12 09:08:21;;;;;;;;;7.75;7.75;;;;;;;;5098446;27;45433;-79
2023/09/12 09:10:56;;;;;;;;;7.25;7.25;;;;;;;;5086982;27;48301;-80
2023/09/12 09:13:22;;;;;;;;;11.00;9.00;;;;;;;;5093284;27;45435;-79
2023/09/12 09:15:47;;;;;;;;;9.25;8.25;;;;;;;;5081422;27;45617;-83
2023/09/12 09:18:12;;;;;;;;;11.33;9.00;;;;;;;;5087108;27;45583;-80
2023/09/12 09:20:39;;;;;;;;;9.75;8.25;;;;;;;;5096112;27;46179;-81
2023/09/12 09:23:05;;;;;;;;;9.75;7.75;;;;;;;;5063700;28;45373;-82
2023/09/12 09:25:31;;;;;;;;;8.67;7.67;;;;;;;;5062974;28;45338;-82
2023/09/12 09:27:57;;;;;;;;;8.00;6.00;;;;;;;;5095773;27;45483;-78
2023/09/12 09:30:38;;;;;;;;;9.00;7.67;;;;;;;;5074471;27;47001;-81
2023/09/12 09:33:06;;;;;;;;;7.75;7.75;;;;;;;;5062563;28;45459;-79
2023/09/12 09:35:32;;;;;;;;;12.00;12.00;;;;;;;;5098740;27;45477;-80
2023/09/12 09:37:58;;;;;;;;;3.67;3.67;;;;;;;;5082114;27;46607;-81
2023/09/12 09:40:23;;;;;;;;;12.67;10.67;;;;;;;;5077222;27;47057;-81
2023/09/12 09:42:53;;;;;;;;;13.00;10.00;;;;;;;;5089065;27;46062;-79
2023/09/12 09:45:18;;;;;;;;;15.33;12.67;;;;;;;;5090888;27;45546;-81
2023/09/12 09:47:44;;;;;;;;;11.33;9.67;;;;;;;;5093583;27;45433;-80
2023/09/12 09:50:13;;;;;;;;;13.67;12.00;;;;;;;;5095960;27;45751;-81
2023/09/12 09:52:39;;;;;;;;;11.67;9.33;;;;;;;;5068506;28;45469;-81
2023/09/12 09:55:09;;;;;;;;;15.00;10.67;;;;;;;;5089061;27;45721;-83
2023/09/12 09:57:38;;;;;;;;;13.33;10.67;;;;;;;;5094103;27;45870;-79
2023/09/12 10:00:08;;;;;;;;;11.67;11.67;;;;;;;;5085035;27;46414;-82
2023/09/12 10:02:34;;;;;;;;;13.00;11.67;;;;;;;;5075264;27;45792;-83
2023/09/12 10:05:01;;;;;;;;;14.33;12.67;;;;;;;;5069684;27;45478;-81
2023/09/12 10:07:27;;;;;;;;;15.33;15.33;;;;;;;;5056215;28;46030;-80
2023/09/12 10:09:53;;;;;;;;;15.00;14.00;;;;;;;;5081713;27;45535;-80
2023/09/12 10:12:18;;;;;;;;;13.33;12.00;;;;;;;;5086188;27;45731;-80
2023/09/12 10:14:45;;;;;;;;;11.33;11.00;;;;;;;;5071058;27;45756;-81
2023/09/12 10:17:12;;;;;;;;;15.33;15.33;;;;;;;;5081939;27;45791;-78
2023/09/12 10:19:41;;;;;;;;;21.00;17.67;;;;;;;;5071025;27;46558;-80
2023/09/12 10:22:09;;;;;;;;;19.67;17.33;;;;;;;;5079501;27;45455;-77
2023/09/12 10:24:41;;;;;;;;;14.67;13.33;;;;;;;;5066314;27;45564;-77
2023/09/12 10:27:06;;;;;;;;;23.67;19.67;;;;;;;;5074980;27;45847;-79
2023/09/12 10:29:37;;;;;;;;;20.33;15.67;;;;;;;;5085901;27;45508;-79
2023/09/12 10:32:03;;;;;;;;;19.00;16.33;;;;;;;;5081273;27;45832;-80
2023/09/12 10:34:30;;;;;;;;;14.33;14.33;;;;;;;;5081544;27;45834;-80
2023/09/12 10:36:58;;;;;;;;;22.00;17.00;;;;;;;;5069345;27;46124;-81
2023/09/12 10:39:26;;;;;;;;;19.33;16.67;;;;;;;;5073718;27;47531;-81
2023/09/12 10:41:52;;;;;;;;;19.00;17.00;;;;;;;;5071393;27;45963;-82
2023/09/12 10:44:18;;;;;;;;;23.67;19.00;;;;;;;;5073431;27;45513;-80
2023/09/12 10:46:44;;;;;;;;;21.00;18.33;;;;;;;;5089798;27;45759;-82
2023/09/12 10:49:11;;;;;;;;;17.67;16.67;;;;;;;;5084237;27;45825;-81
2023/09/12 10:51:43;;;;;;;;;18.33;16.00;;;;;;;;5078077;27;45863;-82
2023/09/12 10:54:09;;;;;;;;;15.33;13.33;;;;;;;;5081760;27;45459;-82
2023/09/12 10:56:34;;;;;;;;;12.00;9.67;;;;;;;;5072820;27;46101;-83
2023/09/12 10:59:12;;;;;;;;;11.67;9.67;;;;;;;;5086258;27;46713;-83
2023/09/12 11:01:39;;;;;;;;;16.67;13.67;;;;;;;;5088347;27;45512;-82
2023/09/12 11:04:19;;;;;;;;;12.33;11.00;;;;;;;;5100529;27;45595;-82
2023/09/12 11:06:48;;;;;;;;;14.67;13.67;;;;;;;;5102997;27;45464;-83
2023/09/12 11:09:13;;;;;;;;;14.00;14.00;;;;;;;;5099413;27;45889;-83
2023/09/12 11:11:38;;;;;;;;;21.33;17.67;;;;;;;;5088313;27;45870;-81
2023/09/12 11:14:04;;;;;;;;;19.33;16.33;;;;;;;;5092441;27;45726;-82
2023/09/12 11:16:56;;;;;;;;;14.67;14.00;;;;;;;;5076623;27;45994;-82
2023/09/12 11:19:25;;;;;;;;;19.33;14.33;;;;;;;;5070943;27;46089;-79
2023/09/12 11:21:51;;;;;;;;;14.33;11.33;;;;;;;;5078751;27;45670;-81
2023/09/12 11:24:17;;;;;;;;;8.00;8.00;;;;;;;;5057301;27;45682;-79
2023/09/12 11:26:57;;;;;;;;;14.33;10.00;;;;;;;;5091793;27;45524;-78
2023/09/12 11:29:28;;;;;;;;;10.00;9.67;;;;;;;;5070139;27;47063;-79
2023/09/12 11:31:57;;;;;;;;;9.67;9.67;;;;;;;;5090916;27;45465;-77
2023/09/12 11:34:23;;;;;;;;;13.00;10.00;;;;;;;;5074369;27;45403;-78
2023/09/12 11:36:49;;;;;;;;;12.33;8.67;;;;;;;;5072611;27;46034;-79
2023/09/12 11:39:24;;;;;;;;;11.33;8.67;;;;;;;;5076579;27;45912;-77
2023/09/12 11:41:50;;;;;;;;;10.00;8.67;;;;;;;;5083876;27;45925;-79
2023/09/12 11:44:15;;;;;;;;;8.50;7.25;;;;;;;;5090918;27;46020;-79
2023/09/12 11:46:41;;;;;;;;;6.00;6.00;;;;;;;;5088732;27;45760;-78
2023/09/12 11:49:06;;;;;;;;;11.33;10.33;;;;;;;;5085773;27;46541;-77
2023/09/12 11:51:32;;;;;;;;;7.67;7.00;;;;;;;;5087021;27;45408;-78
2023/09/12 11:53:59;;;;;;;;;9.00;9.00;;;;;;;;5091824;27;45542;-79
2023/09/12 11:56:25;;;;;;;;;13.67;13.33;;;;;;;;5082524;27;45536;-81
2023/09/12 11:58:50;;;;;;;;;10.33;8.00;;;;;;;;5083990;27;45698;-79
2023/09/12 12:01:15;;;;;;;;;12.67;10.33;;;;;;;;5091082;27;45762;-79
2023/09/12 12:03:40;;;;;;;;;7.33;7.33;;;;;;;;5091636;27;45401;-78
2023/09/12 12:06:06;;;;;;;;;11.50;10.00;;;;;;;;5093328;27;45857;-77
2023/09/12 12:08:31;;;;;;;;;12.75;9.50;;;;;;;;5083838;27;45914;-75
2023/09/12 12:10:58;;;;;;;;;9.25;8.00;;;;;;;;5075831;27;45851;-75
2023/09/12 12:13:24;;;;;;;;;6.75;6.75;;;;;;;;5096407;27;45558;-78
2023/09/12 12:15:49;;;;;;;;;9.50;9.50;;;;;;;;5092682;27;46876;-75
2023/09/12 12:18:15;;;;;;;;;9.75;9.00;;;;;;;;5090567;27;46110;-75
2023/09/12 12:20:40;;;;;;;;;11.50;10.50;;;;;;;;5095174;27;45864;-76
2023/09/12 12:23:06;;;;;;;;;10.75;8.75;;;;;;;;5095104;27;45770;-75
2023/09/12 12:25:35;;;;;;;;;10.25;5.00;;;;;;;;5094353;27;45713;-76
2023/09/12 12:28:03;;;;;;;;;8.00;8.00;;;;;;;;5090689;27;45944;-75
2023/09/12 12:30:35;;;;;;;;;9.00;7.25;;;;;;;;5086960;27;45923;-75
2023/09/12 12:33:02;;;;;;;;;7.50;6.75;;;;;;;;5093472;27;45575;-76
2023/09/12 12:35:28;;;;;;;;;9.50;9.50;;;;;;;;5087881;27;45508;-75
2023/09/12 12:37:55;;;;;;;;;9.00;6.75;;;;;;;;5093098;27;45510;-77
2023/09/12 12:40:21;;;;;;;;;9.50;5.50;;;;;;;;5085592;27;45707;-75
2023/09/12 12:42:46;;;;;;;;;5.00;5.00;;;;;;;;5084166;27;45773;-76
2023/09/12 12:45:12;;;;;;;;;10.00;6.25;;;;;;;;5073458;27;46424;-76
2023/09/12 12:47:38;;;;;;;;;9.00;9.00;;;;;;;;5093514;27;45810;-77
2023/09/12 12:50:07;;;;;;;;;8.25;6.25;;;;;;;;5091859;27;45718;-76
2023/09/12 12:52:33;;;;;;;;;6.75;6.75;;;;;;;;5093184;27;45821;-76
2023/09/12 12:55:09;;;;;;;;;7.25;7.25;;;;;;;;5091587;27;45838;-75
2023/09/12 12:57:38;;;;;;;;;6.50;6.00;;;;;;;;5079639;27;47140;-75
2023/09/12 13:00:05;;;;;;;;;8.75;6.75;;;;;;;;5092366;27;46067;-76
2023/09/12 13:02:31;;;;;;;;;7.75;6.25;;;;;;;;5094168;27;45720;-77
2023/09/12 13:04:56;;;;;;;;;8.50;6.50;;;;;;;;5064034;27;45464;-76
2023/09/12 13:07:22;;;;;;;;;7.75;7.75;;;;;;;;5085642;27;47315;-76
2023/09/12 13:09:47;;;;;;;;;7.75;7.75;;;;;;;;5092293;27;45772;-77
2023/09/12 13:12:14;;;;;;;;;7.75;7.00;;;;;;;;5074710;27;45517;-75
2023/09/12 13:14:40;;;;;;;;;6.00;5.00;;;;;;;;5093536;27;45542;-76
2023/09/12 13:17:05;;;;;;;;;10.00;9.50;;;;;;;;5074107;27;46209;-76
2023/09/12 13:19:31;;;;;;;;;12.75;12.75;;;;;;;;5092651;27;45754;-75
2023/09/12 13:22:02;;;;;;;;;10.50;7.75;;;;;;;;5066769;27;45877;-76
2023/09/12 13:24:27;;;;;;;;;8.00;8.00;;;;;;;;5071210;27;45938;-76
2023/09/12 13:26:53;;;;;;;;;8.25;7.50;;;;;;;;5092919;27;45619;-78
2023/09/12 13:29:19;;;;;;;;;7.50;5.75;;;;;;;;5087133;27;45512;-75
2023/09/12 13:31:44;;;;;;;;;11.25;7.50;;;;;;;;5074846;27;45772;-76
2023/09/12 13:34:10;;;;;;;;;9.00;8.00;;;;;;;;5092495;27;45941;-78
2023/09/12 13:36:35;;;;;;;;;7.75;6.50;;;;;;;;5074575;27;47027;-77
2023/09/12 13:39:01;;;;;;;;;13.25;10.25;;;;;;;;5092102;27;45811;-75
2023/09/12 13:41:27;;;;;;;;;10.50;8.75;;;;;;;;5091395;27;45750;-77
2023/09/12 13:43:52;;;;;;;;;8.00;8.00;;;;;;;;5068912;27;46218;-76
2023/09/12 13:46:18;;;;;;;;;11.75;11.75;;;;;;;;5089550;27;45992;-77
2023/09/12 13:48:43;;;;;;;;;9.50;9.50;;;;;;;;5072513;27;45704;-78
2023/09/12 13:51:08;;;;;;;;;16.75;10.00;;;;;;;;5069615;27;45471;-76
2023/09/12 13:53:33;;;;;;;;;12.00;10.00;;;;;;;;5088196;27;46594;-78
2023/09/12 13:56:01;;;;;;;;;12.25;11.25;;;;;;;;5074516;27;47270;-78
2023/09/12 13:58:26;;;;;;;;;9.50;8.00;;;;;;;;5092890;27;45840;-77
2023/09/12 14:00:51;;;;;;;;;9.50;9.50;;;;;;;;5093067;27;45766;-77
2023/09/12 14:03:16;;;;;;;;;8.00;8.00;;;;;;;;5087286;27;45521;-77
2023/09/12 14:05:41;;;;;;;;;9.50;9.50;;;;;;;;5069766;27;46578;-77
2023/09/12 14:08:07;;;;;;;;;11.50;10.50;;;;;;;;5075170;27;45786;-79
2023/09/12 14:10:32;;;;;;;;;10.50;9.50;;;;;;;;5089284;27;45831;-75
2023/09/12 14:12:57;;;;;;;;;10.75;7.75;;;;;;;;5071752;27;46605;-77
2023/09/12 14:15:22;;;;;;;;;9.50;9.00;;;;;;;;5076776;27;46429;-77
2023/09/12 14:17:48;;;;;;;;;12.25;8.75;;;;;;;;5062335;28;45467;-78